Time;durP1;ratioP1;P1;durP2;ratioP2;P2;SDS_P1;SDS_P2;PMS_P1;PMS_P2;Temp;Humidity;BMP_temperature;BMP_pressure;BME280_temperature;BME280_humidity;BME280_pressure;Samples;Min_cycle;Max_cycle;Signal;HPM_P1;HPM_P2
2022/03/24 00:02:26;;;;;;;6.87;3.93;;;;;;;-0.33;56.18;96573.90;1831987;78;21049;-70
2022/03/24 00:04:52;;;;;;;11.33;5.73;;;;;;;-0.32;56.87;96578.67;1832096;78;20978;-70
2022/03/24 00:07:18;;;;;;;10.17;6.10;;;;;;;-0.38;56.38;96573.22;1832218;78;21002;-70
2022/03/24 00:09:45;;;;;;;10.73;5.90;;;;;;;-0.35;56.14;96575.55;1832167;78;20985;-69
2022/03/24 00:12:12;;;;;;;11.27;6.33;;;;;;;-0.37;56.34;96573.72;1831813;78;21484;-70
2022/03/24 00:14:39;;;;;;;12.37;6.23;;;;;;;-0.32;56.10;96564.41;1832012;78;21014;-70
2022/03/24 00:17:07;;;;;;;10.20;5.30;;;;;;;-0.31;56.26;96567.45;1831927;78;21014;-70
2022/03/24 00:19:34;;;;;;;11.53;6.73;;;;;;;-0.30;56.01;96561.47;1832049;78;21578;-70
2022/03/24 00:22:01;;;;;;;9.47;4.70;;;;;;;-0.23;55.64;96562.14;1832147;78;20998;-69
2022/03/24 00:24:50;;;;;;;11.57;5.83;;;;;;;-0.35;57.05;96556.09;1831968;78;21515;-70
2022/03/24 00:27:16;;;;;;;11.87;5.73;;;;;;;-0.47;56.49;96553.02;1831768;78;21515;-69
2022/03/24 00:29:44;;;;;;;8.57;5.03;;;;;;;-0.49;56.58;96555.54;1832215;78;21053;-70
2022/03/24 00:32:11;;;;;;;13.33;5.77;;;;;;;-0.55;56.82;96548.83;1832009;78;21445;-70
2022/03/24 00:34:39;;;;;;;12.40;5.50;;;;;;;-0.57;56.75;96549.17;1832068;78;21030;-69
2022/03/24 00:37:08;;;;;;;11.67;6.00;;;;;;;-0.52;56.63;96544.18;1831671;78;21042;-70
2022/03/24 00:39:34;;;;;;;7.53;3.90;;;;;;;-0.51;56.99;96544.64;1831928;78;20990;-70
2022/03/24 00:42:07;;;;;;;10.20;5.57;;;;;;;-0.48;57.71;96539.56;1832135;78;21029;-70
2022/03/24 00:44:33;;;;;;;11.90;5.73;;;;;;;-0.52;56.82;96537.28;1802248;78;21004;-70
2022/03/24 00:46:59;;;;;;;10.10;4.73;;;;;;;-0.45;56.49;96531.52;1832021;78;21018;-70
2022/03/24 00:49:26;;;;;;;11.63;5.40;;;;;;;-0.47;56.40;96528.39;1831762;78;21017;-70
2022/03/24 00:51:53;;;;;;;8.73;5.03;;;;;;;-0.50;56.17;96526.98;1832020;78;20974;-70
2022/03/24 00:54:20;;;;;;;7.57;4.70;;;;;;;-0.52;56.24;96517.84;1832119;78;21026;-70
2022/03/24 00:56:48;;;;;;;8.70;4.80;;;;;;;-0.60;56.51;96523.14;1831991;78;21017;-70
2022/03/24 00:59:15;;;;;;;10.40;4.50;;;;;;;-0.63;56.50;96524.33;1831761;78;20982;-71
2022/03/24 01:01:41;;;;;;;7.30;3.43;;;;;;;-0.55;56.66;96515.55;1832297;78;21002;-70
2022/03/24 01:04:10;;;;;;;10.33;4.50;;;;;;;-0.57;57.15;96515.90;1832265;78;20974;-70
2022/03/24 01:06:36;;;;;;;9.30;4.60;;;;;;;-0.65;56.46;96514.30;1831770;78;20966;-70
2022/03/24 01:09:05;;;;;;;9.40;4.63;;;;;;;-0.64;56.44;96512.59;1831918;78;21100;-70
2022/03/24 01:11:32;;;;;;;7.90;3.93;;;;;;;-0.61;56.46;96511.41;1832098;78;20959;-70
2022/03/24 01:14:01;;;;;;;8.43;4.03;;;;;;;-0.57;56.55;96506.83;1831990;78;20998;-70
2022/03/24 01:16:28;;;;;;;8.57;4.00;;;;;;;-0.57;56.86;96499.05;1831677;78;21065;-70
2022/03/24 01:18:54;;;;;;;7.60;3.93;;;;;;;-0.62;56.62;96492.39;1832270;78;20990;-70
2022/03/24 01:21:21;;;;;;;8.50;4.50;;;;;;;-0.71;56.87;96490.72;1831883;78;21409;-70
2022/03/24 01:23:48;;;;;;;5.23;3.33;;;;;;;-0.67;56.79;96497.80;1831920;78;21070;-70
2022/03/24 01:26:15;;;;;;;7.63;4.03;;;;;;;-0.74;56.90;96490.19;1831998;78;21519;-70
2022/03/24 01:28:42;;;;;;;6.37;4.10;;;;;;;-0.74;57.54;96496.67;1831772;78;20998;-71
2022/03/24 01:31:10;;;;;;;9.27;4.60;;;;;;;-0.72;57.00;96494.15;1831948;78;21483;-71
2022/03/24 01:33:39;;;;;;;6.20;3.90;;;;;;;-0.69;56.82;96489.95;1832168;78;20967;-70
2022/03/24 01:36:08;;;;;;;7.33;3.17;;;;;;;-0.67;56.51;96480.54;1831028;78;21081;-70
2022/03/24 01:38:36;;;;;;;7.87;3.93;;;;;;;-0.68;56.94;96477.48;1832006;78;20982;-71
2022/03/24 01:41:03;;;;;;;8.40;3.90;;;;;;;-0.74;57.53;96481.13;1832028;78;20971;-71
2022/03/24 01:43:31;;;;;;;4.40;2.60;;;;;;;-0.75;57.45;96486.27;1831643;78;20985;-71
2022/03/24 01:45:59;;;;;;;6.83;3.70;;;;;;;-0.83;57.82;96478.58;1831963;78;21066;-71
2022/03/24 01:48:26;;;;;;;6.30;3.80;;;;;;;-0.93;57.68;96476.94;1832014;78;21532;-71
2022/03/24 01:50:54;;;;;;;13.27;4.93;;;;;;;-0.94;57.62;96475.57;1831970;78;21026;-71
2022/03/24 01:53:21;;;;;;;7.93;3.83;;;;;;;-0.88;57.40;96473.23;1832059;78;21073;-71
2022/03/24 01:55:50;;;;;;;8.00;4.13;;;;;;;-0.79;57.22;96470.11;1831578;78;21022;-71
2022/03/24 01:58:17;;;;;;;14.07;3.77;;;;;;;-0.75;58.00;96469.42;1831786;78;21010;-71
2022/03/24 02:00:44;;;;;;;7.53;4.27;;;;;;;-0.78;57.73;96461.50;1832001;78;21026;-71
2022/03/24 02:03:14;;;;;;;7.63;4.10;;;;;;;-0.78;57.78;96465.00;1831753;78;21014;-71
2022/03/24 02:05:42;;;;;;;8.23;4.33;;;;;;;-0.85;57.69;96464.70;1831668;78;21045;-71
2022/03/24 02:08:10;;;;;;;8.77;4.40;;;;;;;-0.88;57.96;96467.64;1832185;78;21034;-71
2022/03/24 02:10:37;;;;;;;9.07;4.00;;;;;;;-0.84;57.58;96466.04;1831611;78;21078;-71
2022/03/24 02:13:05;;;;;;;7.50;4.20;;;;;;;-0.90;57.67;96469.70;1832079;78;21029;-71
2022/03/24 02:15:33;;;;;;;6.03;3.00;;;;;;;-0.92;57.78;96465.74;1832104;78;20998;-71
2022/03/24 02:18:00;;;;;;;6.50;3.67;;;;;;;-0.97;57.89;96459.50;1831892;78;20993;-71
2022/03/24 02:20:33;;;;;;;7.13;3.80;;;;;;;-1.01;58.21;96460.19;1831643;78;21030;-71
2022/03/24 02:22:57;;;;;;;4.37;2.60;;;;;;;-1.00;58.61;96460.67;1831619;78;21506;-71
2022/03/24 02:25:27;;;;;;;7.57;3.50;;;;;;;-0.99;58.30;96458.97;1831529;78;21089;-71
2022/03/24 02:27:54;;;;;;;6.73;3.93;;;;;;;-1.05;58.44;96460.03;1831735;78;20999;-71
2022/03/24 02:30:20;;;;;;;8.53;3.80;;;;;;;-1.02;58.67;96454.97;1831865;78;21540;-71
2022/03/24 02:32:47;;;;;;;6.80;3.77;;;;;;;-1.05;58.44;96459.61;1832235;78;21006;-70
2022/03/24 02:35:14;;;;;;;6.37;3.73;;;;;;;-1.10;58.71;96457.25;1831875;78;21009;-71
2022/03/24 02:37:40;;;;;;;6.47;3.37;;;;;;;-1.05;58.66;96456.14;1832127;78;20994;-71
2022/03/24 02:40:09;;;;;;;4.53;2.97;;;;;;;-1.07;58.69;96457.78;1831995;78;21104;-71
2022/03/24 02:42:38;;;;;;;5.90;4.10;;;;;;;-1.10;58.74;96458.13;1831929;78;20970;-71
2022/03/24 02:45:08;;;;;;;5.97;3.77;;;;;;;-1.14;58.49;96458.81;1831388;78;21070;-71
2022/03/24 02:47:35;;;;;;;7.27;3.93;;;;;;;-1.12;58.26;96460.18;1831946;78;20990;-71
2022/03/24 02:50:03;;;;;;;6.77;4.23;;;;;;;-1.10;59.75;96458.55;1831561;78;21006;-71
2022/03/24 02:52:30;;;;;;;6.70;3.90;;;;;;;-1.07;58.55;96456.48;1826019;78;20978;-71
2022/03/24 02:54:57;;;;;;;8.13;3.90;;;;;;;-1.16;60.08;96454.39;1825873;78;21070;-71
2022/03/24 02:57:24;;;;;;;5.73;3.07;;;;;;;-1.18;59.05;96453.48;1826181;78;21566;-71
2022/03/24 02:59:51;;;;;;;6.73;3.87;;;;;;;-1.18;59.49;96453.48;1825901;78;20994;-71
2022/03/24 03:02:18;;;;;;;5.97;3.80;;;;;;;-1.31;59.95;96449.52;1826449;78;20974;-71
2022/03/24 03:04:53;;;;;;;7.43;4.20;;;;;;;-1.39;59.93;96447.88;1826089;78;21487;-71
2022/03/24 03:07:15;;;;;;;8.00;3.90;;;;;;;-1.30;60.03;96451.27;1824159;78;21002;-71
2022/03/24 03:09:42;;;;;;;24.50;4.50;;;;;;;-1.26;59.56;96447.08;1826085;78;21001;-71
2022/03/24 03:12:11;;;;;;;9.07;3.97;;;;;;;-1.26;59.40;96440.61;1826198;78;20967;-70
2022/03/24 03:14:40;;;;;;;7.97;3.60;;;;;;;-1.26;59.43;96441.91;1825821;78;21010;-71
2022/03/24 03:17:08;;;;;;;7.93;3.60;;;;;;;-1.30;59.51;96437.02;1825892;78;21559;-71
2022/03/24 03:19:36;;;;;;;6.73;3.27;;;;;;;-1.29;59.42;96437.91;1826160;78;21475;-71
2022/03/24 03:22:04;;;;;;;6.07;3.57;;;;;;;-1.26;59.22;96434.14;1825940;78;21010;-71
2022/03/24 03:24:32;;;;;;;5.97;3.67;;;;;;;-1.20;59.13;96431.81;1826267;78;20955;-71
2022/03/24 03:27:00;;;;;;;7.17;3.70;;;;;;;-1.19;59.26;96433.56;1825904;78;21113;-71
2022/03/24 03:29:27;;;;;;;8.83;4.20;;;;;;;-1.17;59.33;96430.62;1826001;78;21021;-71
2022/03/24 03:31:54;;;;;;;9.27;3.73;;;;;;;-1.18;59.01;96420.69;1826154;78;21005;-71
2022/03/24 03:34:24;;;;;;;7.67;3.30;;;;;;;-1.16;59.10;96420.73;1826224;78;20986;-71
2022/03/24 03:36:53;;;;;;;7.80;3.80;;;;;;;-1.22;59.21;96419.20;1826163;78;21102;-71
2022/03/24 03:39:20;;;;;;;5.17;3.20;;;;;;;-1.24;59.27;96416.96;1826151;78;20970;-71
2022/03/24 03:41:47;;;;;;;7.30;3.57;;;;;;;-1.26;59.25;96409.54;1825952;78;21002;-71
2022/03/24 03:44:15;;;;;;;18.53;3.60;;;;;;;-1.25;58.79;96416.50;1826285;78;20994;-71
2022/03/24 03:46:42;;;;;;;6.63;3.47;;;;;;;-1.30;59.11;96412.43;1826029;78;21053;-71
2022/03/24 03:49:09;;;;;;;6.20;3.47;;;;;;;-1.36;59.08;96413.08;1825816;78;21054;-71
2022/03/24 03:51:37;;;;;;;6.50;3.87;;;;;;;-1.48;59.19;96412.58;1822916;78;21122;-70
2022/03/24 03:54:07;;;;;;;7.17;4.10;;;;;;;-1.57;60.20;96409.19;1821247;79;20994;-71
2022/03/24 03:56:36;;;;;;;8.73;4.17;;;;;;;-1.52;59.77;96408.09;1821070;79;21037;-71
2022/03/24 03:59:07;;;;;;;6.63;3.40;;;;;;;-1.48;59.76;96418.17;1821063;79;20999;-71
2022/03/24 04:01:36;;;;;;;7.97;3.97;;;;;;;-1.46;59.78;96410.94;1821196;79;21010;-71
2022/03/24 04:04:04;;;;;;;7.33;4.07;;;;;;;-1.49;59.64;96404.32;1821179;79;21010;-71
2022/03/24 04:06:31;;;;;;;9.10;4.40;;;;;;;-1.46;59.66;96406.14;1821281;79;21503;-70
2022/03/24 04:08:57;;;;;;;7.93;4.60;;;;;;;-1.49;59.93;96408.62;1821230;79;20963;-70
2022/03/24 04:11:25;;;;;;;26.53;5.50;;;;;;;-1.43;59.55;96402.41;1821298;79;21034;-71
2022/03/24 04:13:53;;;;;;;13.10;5.30;;;;;;;-1.38;59.90;96401.77;1821088;79;21038;-71
2022/03/24 04:16:20;;;;;;;11.87;4.97;;;;;;;-1.39;60.39;96393.93;1821287;79;21005;-71
2022/03/24 04:18:46;;;;;;;11.03;4.40;;;;;;;-1.40;61.19;96399.52;1821352;79;21021;-71
2022/03/24 04:21:14;;;;;;;7.30;3.80;;;;;;;-1.41;60.57;96396.86;1821242;79;21496;-71
2022/03/24 04:23:42;;;;;;;8.20;4.93;;;;;;;-1.44;60.21;96395.45;1821199;79;21071;-71
2022/03/24 04:26:12;;;;;;;9.37;4.40;;;;;;;-1.40;59.79;96399.52;1821192;79;20947;-71
2022/03/24 04:28:43;;;;;;;7.33;3.87;;;;;;;-1.43;60.01;96392.94;1821034;79;21488;-71
2022/03/24 04:31:09;;;;;;;8.50;4.37;;;;;;;-1.42;60.16;96389.93;1821218;79;20959;-70
2022/03/24 04:33:37;;;;;;;9.47;4.70;;;;;;;-1.55;61.12;96391.14;1821235;79;21532;-71
2022/03/24 04:36:08;;;;;;;8.80;4.50;;;;;;;-1.51;60.69;96385.28;1821140;79;21339;-71
2022/03/24 04:38:33;;;;;;;10.03;4.13;;;;;;;-1.50;61.36;96388.33;1820885;79;21022;-73
2022/03/24 04:41:00;;;;;;;10.33;5.20;;;;;;;-1.50;61.57;96382.28;1821336;79;20994;-70
2022/03/24 04:43:27;;;;;;;10.87;5.30;;;;;;;-1.48;61.00;96380.64;1821487;79;21002;-74
2022/03/24 04:45:54;;;;;;;9.40;4.00;;;;;;;-1.37;60.66;96375.47;1821161;79;21057;-72
2022/03/24 04:48:21;;;;;;;10.27;4.07;;;;;;;-1.26;60.98;96374.20;1821051;79;21017;-70
2022/03/24 04:50:48;;;;;;;11.37;3.93;;;;;;;-1.29;60.95;96367.58;1821855;78;21005;-71
2022/03/24 04:53:15;;;;;;;9.50;4.33;;;;;;;-1.23;60.83;96365.67;1826085;78;21067;-71
2022/03/24 04:55:45;;;;;;;8.63;4.43;;;;;;;-1.24;62.31;96363.88;1826199;78;20985;-71
2022/03/24 04:58:13;;;;;;;10.70;5.77;;;;;;;-1.21;61.13;96365.29;1825919;78;21496;-71
2022/03/24 05:00:40;;;;;;;17.23;6.70;;;;;;;-1.12;61.05;96361.77;1826163;78;20990;-71
2022/03/24 05:03:07;;;;;;;16.53;7.00;;;;;;;-1.05;61.69;96359.02;1826213;78;21472;-71
2022/03/24 05:05:34;;;;;;;19.33;9.50;;;;;;;-0.97;62.35;96358.47;1826199;78;21010;-71
2022/03/24 05:08:01;;;;;;;18.63;6.73;;;;;;;-0.83;61.38;96353.83;1826366;78;20982;-71
2022/03/24 05:10:27;;;;;;;11.77;4.77;;;;;;;-0.72;61.25;96357.68;1825935;78;21080;-67
2022/03/24 05:12:54;;;;;;;21.27;7.60;;;;;;;-0.64;62.41;96353.20;1826293;78;20994;-68
2022/03/24 05:15:23;;;;;;;27.83;12.20;;;;;;;-0.58;61.87;96359.50;1826111;78;20994;-67
2022/03/24 05:17:51;;;;;;;31.60;15.17;;;;;;;-0.51;61.66;96360.58;1826282;78;21499;-68
2022/03/24 05:20:18;;;;;;;16.87;9.73;;;;;;;-0.47;61.57;96358.58;1826095;78;21021;-68
2022/03/24 05:22:44;;;;;;;18.30;9.90;;;;;;;-0.42;61.28;96363.94;1826304;78;21029;-68
2022/03/24 05:25:11;;;;;;;24.13;12.13;;;;;;;-0.41;61.21;96361.80;1826245;78;21452;-68
2022/03/24 05:27:37;;;;;;;24.00;13.03;;;;;;;-0.32;61.39;96361.72;1826087;78;20998;-68
2022/03/24 05:30:05;;;;;;;21.83;10.43;;;;;;;-0.16;60.55;96363.13;1826089;78;21018;-68
2022/03/24 05:32:32;;;;;;;19.20;10.93;;;;;;;-0.09;60.07;96356.04;1826186;78;21010;-68
2022/03/24 05:34:58;;;;;;;17.33;9.47;;;;;;;-0.01;59.92;96351.98;1826225;78;20971;-68
2022/03/24 05:37:25;;;;;;;27.10;12.77;;;;;;;0.08;60.06;96350.56;1826113;78;21037;-68
2022/03/24 05:39:51;;;;;;;15.03;8.00;;;;;;;0.14;60.57;96348.16;1826078;78;20971;-68
2022/03/24 05:42:18;;;;;;;12.43;7.17;;;;;;;0.16;61.58;96345.20;1826288;78;20947;-68
2022/03/24 05:44:45;;;;;;;23.47;10.03;;;;;;;0.21;62.09;96339.33;1826091;78;21014;-68
2022/03/24 05:47:12;;;;;;;16.20;7.80;;;;;;;0.31;62.17;96342.23;1825826;78;21105;-68
2022/03/24 05:49:39;;;;;;;14.93;8.77;;;;;;;0.42;61.84;96337.84;1826150;78;20963;-68
2022/03/24 05:52:11;;;;;;;22.03;11.37;;;;;;;0.56;61.67;96333.10;1753121;80;21002;-68
2022/03/24 05:54:37;;;;;;;30.13;15.70;;;;;;;0.75;61.05;96334.97;1796747;80;21073;-68
2022/03/24 05:57:05;;;;;;;24.87;13.40;;;;;;;0.95;61.20;96330.39;1796812;80;20985;-69
2022/03/24 05:59:31;;;;;;;25.53;13.43;;;;;;;1.16;60.84;96335.33;1796652;80;21043;-68
2022/03/24 06:01:59;;;;;;;26.87;16.70;;;;;;;1.31;60.19;96333.20;1796139;80;21568;-70
2022/03/24 06:04:29;;;;;;;730.60;353.87;;;;;;;1.47;60.03;96337.12;1794836;80;20969;-74
2022/03/24 06:06:58;;;;;;;283.37;106.93;;;;;;;1.59;59.99;96330.97;1795344;80;21032;-69
2022/03/24 06:09:24;;;;;;;125.70;48.77;;;;;;;1.72;59.34;96333.05;1795143;80;21479;-69
2022/03/24 06:11:52;;;;;;;72.83;47.00;;;;;;;1.87;59.90;96329.12;1795813;80;21075;-69
2022/03/24 06:14:20;;;;;;;44.00;25.87;;;;;;;2.02;59.13;96328.22;1796614;80;21451;-74
2022/03/24 06:16:48;;;;;;;38.50;24.83;;;;;;;2.19;58.60;96324.72;1796704;80;20997;-67
2022/03/24 06:19:15;;;;;;;35.20;21.57;;;;;;;2.41;58.44;96322.24;1796860;80;21064;-69
2022/03/24 06:21:42;;;;;;;31.97;17.77;;;;;;;2.56;58.37;96325.64;1755391;82;21043;-74
2022/03/24 06:24:08;;;;;;;27.13;16.00;;;;;;;2.75;57.44;96324.38;1728968;83;21103;-74
2022/03/24 06:26:35;;;;;;;26.57;16.90;;;;;;;2.92;57.64;96319.09;1726509;83;21535;-75
2022/03/24 06:29:03;;;;;;;20.17;12.43;;;;;;;3.09;56.88;96314.26;1729697;83;20990;-72
2022/03/24 06:31:30;;;;;;;29.27;19.77;;;;;;;3.24;57.26;96311.98;1737148;82;21103;-69
2022/03/24 06:33:57;;;;;;;28.97;16.77;;;;;;;3.42;56.51;96313.22;1737440;82;21065;-68
2022/03/24 06:36:25;;;;;;;27.70;15.07;;;;;;;3.60;56.50;96308.39;1737145;81;21545;-71
2022/03/24 06:38:52;;;;;;;22.93;13.17;;;;;;;3.77;55.85;96298.25;1737686;82;21033;-68
2022/03/24 06:41:19;;;;;;;22.97;11.43;;;;;;;3.99;55.49;96299.97;1736555;82;21012;-67
2022/03/24 06:43:47;;;;;;;16.93;10.67;;;;;;;4.19;54.89;96295.11;1738034;82;21062;-67
2022/03/24 06:46:14;;;;;;;19.07;11.37;;;;;;;4.38;54.15;96291.93;1738294;82;21005;-67
2022/03/24 06:48:41;;;;;;;15.93;10.70;;;;;;;4.62;53.45;96286.23;1738415;82;20993;-67
2022/03/24 06:51:08;;;;;;;30.17;17.90;;;;;;;4.83;53.44;96279.56;1738290;82;21005;-65
2022/03/24 06:53:35;;;;;;;21.93;12.43;;;;;;;5.05;53.50;96279.45;1780894;80;21527;-68
2022/03/24 06:56:02;;;;;;;18.93;11.77;;;;;;;5.29;52.22;96272.33;1785549;80;20999;-66
2022/03/24 06:58:29;;;;;;;14.27;8.67;;;;;;;5.57;52.13;96270.52;1784922;80;21475;-68
2022/03/24 07:00:56;;;;;;;13.83;8.93;;;;;;;5.88;49.30;96268.67;1778517;80;20998;-67
2022/03/24 07:03:22;;;;;;;17.43;12.07;;;;;;;6.20;48.83;96267.28;1791220;80;21085;-72
2022/03/24 07:05:49;;;;;;;21.17;11.90;;;;;;;6.54;48.20;96264.94;1760679;80;21069;-72
2022/03/24 07:08:16;;;;;;;17.53;11.33;;;;;;;6.80;48.71;96265.55;1790788;80;21022;-67
2022/03/24 07:10:43;;;;;;;13.30;7.00;;;;;;;7.08;48.17;96262.66;1757075;81;21006;-67
2022/03/24 07:13:09;;;;;;;14.57;7.27;;;;;;;7.37;43.46;96261.06;1758396;81;21077;-69
2022/03/24 07:15:36;;;;;;;23.53;15.27;;;;;;;7.75;40.59;96248.52;1778520;81;21058;-68
2022/03/24 07:18:03;;;;;;;17.40;10.47;;;;;;;8.20;37.24;96246.86;1771975;81;21074;-74
2022/03/24 07:20:30;;;;;;;15.20;8.83;;;;;;;8.55;36.86;96242.53;1818281;77;20986;-70
2022/03/24 07:23:00;;;;;;;23.17;13.70;;;;;;;8.98;36.63;96244.66;1783253;79;22241;-68
2022/03/24 07:25:25;;;;;;;17.23;6.63;;;;;;;9.24;38.59;96242.41;1786111;80;21010;-69
2022/03/24 07:27:52;;;;;;;12.73;7.73;;;;;;;9.50;38.67;96235.75;1779157;81;21054;-69
2022/03/24 07:30:18;;;;;;;9.47;6.43;;;;;;;9.92;34.63;96231.13;1775508;81;21037;-71
2022/03/24 07:32:45;;;;;;;14.53;8.60;;;;;;;10.22;34.91;96235.78;1775760;81;21528;-71
2022/03/24 07:35:13;;;;;;;11.93;6.13;;;;;;;10.59;32.48;96225.86;1788531;80;21592;-73
2022/03/24 07:37:43;;;;;;;8.37;5.30;;;;;;;10.95;29.11;96232.55;1781399;80;21077;-69
2022/03/24 07:40:10;;;;;;;6.77;4.90;;;;;;;11.28;30.11;96222.52;1784272;80;21054;-67
2022/03/24 07:42:37;;;;;;;7.33;4.70;;;;;;;11.56;26.59;96213.81;1791147;80;21056;-69
2022/03/24 07:45:06;;;;;;;6.50;5.10;;;;;;;11.88;25.96;96214.75;1791650;80;21038;-70
2022/03/24 07:47:33;;;;;;;7.20;5.70;;;;;;;12.09;24.26;96210.05;1792163;80;21046;-69
2022/03/24 07:49:59;;;;;;;6.93;4.70;;;;;;;12.31;25.56;96214.13;1792203;80;21010;-70
2022/03/24 07:52:30;;;;;;;8.07;5.20;;;;;;;12.47;22.98;96209.91;1790092;80;21571;-68
2022/03/24 07:55:02;;;;;;;6.97;4.57;;;;;;;12.77;22.81;96205.87;1789818;80;20974;-69
2022/03/24 07:57:32;;;;;;;8.07;4.53;;;;;;;12.92;21.51;96208.70;1787798;80;21515;-68
2022/03/24 08:00:00;;;;;;;7.13;5.23;;;;;;;13.09;21.17;96196.48;1789183;80;20978;-68
2022/03/24 08:02:27;;;;;;;10.00;5.00;;;;;;;13.27;22.20;96201.45;1788954;80;21065;-68
2022/03/24 08:04:53;;;;;;;8.13;4.50;;;;;;;13.44;21.56;96193.64;1790007;80;21527;-69
2022/03/24 08:07:21;;;;;;;7.53;4.80;;;;;;;13.57;20.75;96192.02;1788725;80;21199;-70
2022/03/24 08:09:50;;;;;;;5.83;4.07;;;;;;;13.72;21.90;96200.56;1789832;80;20994;-68
2022/03/24 08:12:16;;;;;;;7.97;5.53;;;;;;;13.82;20.62;96199.00;1789260;80;21018;-71
2022/03/24 08:14:42;;;;;;;11.63;5.77;;;;;;;13.91;21.32;96194.39;1789477;80;21018;-69
2022/03/24 08:17:09;;;;;;;8.93;5.80;;;;;;;14.02;20.51;96189.73;1789051;80;21575;-70
2022/03/24 08:19:35;;;;;;;9.23;6.13;;;;;;;14.13;21.65;96184.17;1785510;79;21019;-72
2022/03/24 08:22:02;;;;;;;7.57;5.03;;;;;;;14.26;21.55;96183.88;1764895;81;20962;-72
2022/03/24 08:24:29;;;;;;;7.87;5.20;;;;;;;14.42;21.23;96192.80;1768518;81;20994;-73
2022/03/24 08:26:55;;;;;;;11.12;6.62;;;;;;;14.49;19.85;96183.31;1768242;81;21025;-70
2022/03/24 08:29:22;;;;;;;6.80;4.72;;;;;;;14.64;20.19;96188.74;1761814;80;21022;-70
2022/03/24 08:31:49;;;;;;;8.40;4.35;;;;;;;14.67;18.61;96193.97;1760231;80;21022;-70
2022/03/24 08:34:17;;;;;;;9.13;5.30;;;;;;;14.68;18.87;96184.21;1768395;81;21035;-72
2022/03/24 08:36:43;;;;;;;6.85;4.45;;;;;;;14.82;20.17;96190.52;1767072;81;21034;-67
2022/03/24 08:39:10;;;;;;;7.60;4.80;;;;;;;14.84;18.06;96192.66;1768074;81;20986;-72
2022/03/24 08:41:36;;;;;;;10.13;4.92;;;;;;;14.99;20.01;96184.73;1768001;81;21098;-70
2022/03/24 08:44:04;;;;;;;11.75;5.08;;;;;;;15.13;18.29;96183.92;1767553;81;21051;-69
2022/03/24 08:46:30;;;;;;;13.08;8.10;;;;;;;15.27;18.42;96188.42;1766697;81;21010;-69
2022/03/24 08:48:57;;;;;;;9.73;7.33;;;;;;;15.34;18.95;96179.33;1767841;81;21041;-69
2022/03/24 08:51:27;;;;;;;32.45;9.50;;;;;;;15.40;18.37;96180.11;1766255;81;21066;-70
2022/03/24 08:53:53;;;;;;;8.73;5.78;;;;;;;15.54;18.72;96183.22;1766931;81;21536;-67
2022/03/24 08:56:20;;;;;;;9.93;6.05;;;;;;;15.53;17.01;96189.47;1766634;81;21034;-69
2022/03/24 08:58:47;;;;;;;9.05;5.40;;;;;;;15.65;17.83;96177.58;1767674;81;20964;-70
2022/03/24 09:01:14;;;;;;;9.55;6.35;;;;;;;15.73;17.37;96188.93;1743256;81;21045;-71
2022/03/24 09:03:41;;;;;;;8.18;5.97;;;;;;;15.90;18.76;96172.44;1735616;82;21018;-69
2022/03/24 09:06:07;;;;;;;7.47;5.58;;;;;;;16.01;17.00;96174.33;1734705;83;21092;-72
2022/03/24 09:08:34;;;;;;;10.28;6.17;;;;;;;16.01;16.74;96176.99;1734735;83;21050;-73
2022/03/24 09:11:01;;;;;;;7.75;4.50;;;;;;;16.19;18.26;96173.75;1735295;83;21030;-71
2022/03/24 09:13:27;;;;;;;8.85;6.12;;;;;;;16.25;15.35;96166.48;1735735;82;21097;-69
2022/03/24 09:15:54;;;;;;;9.55;6.28;;;;;;;16.22;16.85;96168.79;1735147;83;21113;-70
2022/03/24 09:18:21;;;;;;;8.80;5.12;;;;;;;16.27;15.86;96173.51;1735804;83;21022;-69
2022/03/24 09:20:48;;;;;;;8.38;5.22;;;;;;;16.29;15.19;96179.66;1735143;82;21678;-69
2022/03/24 09:23:15;;;;;;;11.25;8.13;;;;;;;16.17;15.46;96170.73;1736357;83;21029;-69
2022/03/24 09:25:42;;;;;;;11.35;6.40;;;;;;;16.26;16.45;96166.92;1752821;82;21145;-70
2022/03/24 09:28:10;;;;;;;11.35;7.30;;;;;;;16.36;15.42;96164.38;1753783;81;21025;-70
2022/03/24 09:30:37;;;;;;;9.40;5.67;;;;;;;16.46;15.31;96167.15;1754542;82;21096;-70
2022/03/24 09:33:04;;;;;;;7.90;5.67;;;;;;;16.49;16.04;96170.17;1754415;82;21025;-75
2022/03/24 09:35:33;;;;;;;8.15;6.00;;;;;;;16.59;15.81;96172.94;1754039;82;21141;-73
2022/03/24 09:37:59;;;;;;;7.03;5.50;;;;;;;16.54;15.79;96169.09;1754175;82;21072;-74
2022/03/24 09:40:26;;;;;;;11.10;7.28;;;;;;;16.60;15.53;96164.88;1753329;82;21088;-75
2022/03/24 09:42:53;;;;;;;9.15;7.03;;;;;;;16.95;16.57;96165.52;1754207;81;21029;-76
2022/03/24 09:45:19;;;;;;;11.57;7.45;;;;;;;17.28;16.85;96154.59;1753641;82;21558;-72
2022/03/24 09:47:46;;;;;;;11.50;8.23;;;;;;;17.41;15.19;96159.02;1754911;82;20966;-75
2022/03/24 09:50:14;;;;;;;12.43;9.15;;;;;;;17.53;15.69;96158.09;1755006;82;21014;-82
2022/03/24 09:52:41;;;;;;;16.85;10.60;;;;;;;17.74;16.83;96160.45;1749255;80;21496;-73
2022/03/24 09:55:09;;;;;;;11.22;8.13;;;;;;;17.82;16.48;96153.98;1766433;80;21106;-76
2022/03/24 09:57:37;;;;;;;11.73;8.48;;;;;;;17.98;16.98;96160.46;1760720;81;21128;-78
2022/03/24 10:00:07;;;;;;;15.53;8.48;;;;;;;17.85;15.16;96157.87;1760437;81;21073;-79
2022/03/24 10:02:34;;;;;;;18.32;7.85;;;;;;;17.77;16.69;96155.92;1760371;81;21108;-78
2022/03/24 10:05:01;;;;;;;10.00;7.60;;;;;;;17.70;16.49;96153.47;1761035;81;21058;-76
2022/03/24 10:07:33;;;;;;;14.03;7.65;;;;;;;17.72;15.76;96158.30;1761370;81;21133;-79
2022/03/24 10:10:01;;;;;;;12.93;7.43;;;;;;;17.65;15.20;96158.11;1761701;81;20971;-78
2022/03/24 10:12:37;;;;;;;9.95;6.62;;;;;;;17.78;15.89;96149.17;1761325;81;21105;-77
2022/03/24 10:15:09;;;;;;;12.88;7.03;;;;;;;17.97;16.31;96159.17;1761159;81;21449;-77
2022/03/24 10:17:38;;;;;;;;;;;;;;;18.03;15.53;96162.95;1763226;81;21085;-79
2022/03/24 10:20:16;;;;;;;13.95;7.90;;;;;;;17.77;14.41;96143.92;1760599;81;20117;-79
2022/03/24 10:22:56;;;;;;;12.60;7.00;;;;;;;17.74;15.78;96153.77;1761334;81;21015;-79
2022/03/24 10:25:28;;;;;;;8.58;5.95;;;;;;;17.91;15.53;96146.94;1761477;81;21027;-78
2022/03/24 10:28:14;;;;;;;9.28;6.28;;;;;;;17.97;15.10;96148.49;1761490;81;21010;-78
2022/03/24 10:30:54;;;;;;;12.78;6.37;;;;;;;18.00;14.90;96137.25;1761523;81;21066;-79
2022/03/24 10:33:39;;;;;;;9.38;6.03;;;;;;;18.22;15.50;96137.72;1761657;81;21030;-78
2022/03/24 10:36:23;;;;;;;8.10;6.17;;;;;;;18.23;14.81;96132.32;1761320;81;21038;-79
2022/03/24 10:38:49;;;;;;;11.73;8.05;;;;;;;18.42;16.70;96127.13;1761152;81;21011;-79
2022/03/24 10:41:24;;;;;;;13.40;7.80;;;;;;;18.69;16.41;96129.09;1761668;81;21540;-79
2022/03/24 10:43:53;;;;;;;11.60;6.92;;;;;;;18.96;17.62;96123.55;1761882;81;21551;-78
2022/03/24 10:46:26;;;;;;;11.63;7.08;;;;;;;18.96;14.22;96126.22;1761447;81;21520;-79
2022/03/24 10:48:53;;;;;;;11.10;7.92;;;;;;;18.94;14.30;96124.94;1761790;81;21026;-79
2022/03/24 10:51:30;;;;;;;15.37;9.67;;;;;;;19.03;14.99;96126.36;1761783;81;21110;-79
2022/03/24 10:54:30;;;;;;;12.35;8.20;;;;;;;18.95;15.25;96113.77;1786216;80;21070;-79
2022/03/24 10:57:16;;;;;;;13.78;7.83;;;;;;;19.18;15.18;96120.34;1795647;80;21503;-79
2022/03/24 10:59:58;;;;;;;8.53;6.03;;;;;;;19.39;14.05;96117.64;1793247;79;20987;-78
2022/03/24 11:02:23;;;;;;;10.28;6.20;;;;;;;19.39;14.05;96117.64;1795913;79;21511;-78
2022/03/24 11:04:51;;;;;;;8.13;6.42;;;;;;;18.85;13.63;96109.75;1796172;80;21056;-78
2022/03/24 11:07:28;;;;;;;11.57;6.85;;;;;;;18.85;13.63;96109.75;1795952;80;21535;-79
2022/03/24 11:09:55;;;;;;;8.90;7.30;;;;;;;19.17;15.81;96116.38;1796122;79;21033;-78
2022/03/24 11:12:36;;;;;;;10.32;6.70;;;;;;;19.75;13.95;96108.89;1795933;80;21041;-79
2022/03/24 11:15:07;;;;;;;12.43;7.97;;;;;;;20.16;15.33;96101.59;1796118;79;21053;-78
2022/03/24 11:17:38;;;;;;;11.75;7.08;;;;;;;20.63;14.65;96105.56;1795558;80;21011;-79
2022/03/24 11:20:16;;;;;;;10.18;7.22;;;;;;;21.05;13.50;96097.63;1795947;80;21555;-79
2022/03/24 11:23:00;;;;;;;10.50;7.25;;;;;;;20.96;12.13;96097.16;1795876;80;21038;-79
2022/03/24 11:25:29;;;;;;;9.48;7.65;;;;;;;21.30;12.46;96095.86;1795868;80;20974;-79
2022/03/24 11:27:57;;;;;;;9.58;7.75;;;;;;;21.79;13.54;96098.11;1795928;79;21026;-79
2022/03/24 11:30:25;;;;;;;10.30;7.67;;;;;;;22.27;12.21;96087.91;1796050;80;20986;-79
2022/03/24 11:32:54;;;;;;;11.48;8.00;;;;;;;22.59;12.06;96090.09;1795680;79;21543;-79
2022/03/24 11:35:23;;;;;;;9.83;7.75;;;;;;;22.35;11.66;96084.30;1795950;80;21425;-78